Time;durP1;ratioP1;P1;durP2;ratioP2;P2;SDS_P1;SDS_P2;PMS_P1;PMS_P2;Temp;Humidity;BMP_temperature;BMP_pressure;BME280_temperature;BME280_humidity;BME280_pressure;Samples;Min_cycle;Max_cycle;Signal;HPM_P1;HPM_P2
2021/06/14 00:00:31;;;;;;;2.70;1.88;;;23.70;54.10;;;;;;5003271;28;20034;-61
2021/06/14 00:02:57;;;;;;;2.85;1.95;;;23.70;54.30;;;;;;5004079;28;20152;-60
2021/06/14 00:05:37;;;;;;;2.47;1.80;;;23.60;54.20;;;;;;5004656;28;20417;-60
2021/06/14 00:08:07;;;;;;;2.75;1.80;;;23.60;54.40;;;;;;5002352;28;20022;-60
2021/06/14 00:10:33;;;;;;;3.17;2.10;;;23.50;54.40;;;;;;5003559;28;21647;-60
2021/06/14 00:12:58;;;;;;;4.68;1.58;;;23.50;54.40;;;;;;4987298;28;20037;-61
2021/06/14 00:15:25;;;;;;;2.13;1.40;;;23.50;54.60;;;;;;5003126;28;20026;-60
2021/06/14 00:17:50;;;;;;;2.95;1.33;;;23.40;54.30;;;;;;5002783;28;20034;-61
2021/06/14 00:20:16;;;;;;;2.22;1.45;;;23.50;54.50;;;;;;5003755;28;20050;-59
2021/06/14 00:22:42;;;;;;;2.72;1.70;;;23.40;54.50;;;;;;5003656;28;20153;-58
2021/06/14 00:25:09;;;;;;;1.98;1.77;;;23.30;54.50;;;;;;5001234;28;20038;-58
2021/06/14 00:27:35;;;;;;;2.58;1.60;;;23.30;54.70;;;;;;5015983;28;20034;-60
2021/06/14 00:30:00;;;;;;;2.35;1.40;;;23.30;54.50;;;;;;5005049;28;20032;-60
2021/06/14 00:32:26;;;;;;;3.58;1.77;;;23.30;54.50;;;;;;5002395;28;20026;-61
2021/06/14 00:34:51;;;;;;;1.60;1.40;;;23.20;54.40;;;;;;5005219;28;20044;-60
2021/06/14 00:37:17;;;;;;;2.08;1.40;;;23.20;54.40;;;;;;5002378;28;20254;-61
2021/06/14 00:39:42;;;;;;;2.72;1.77;;;23.20;54.70;;;;;;5003561;28;20046;-60
2021/06/14 00:42:08;;;;;;;1.83;1.58;;;23.10;54.40;;;;;;5004850;28;20030;-60
2021/06/14 00:44:33;;;;;;;4.25;1.75;;;23.10;54.50;;;;;;5001583;28;20029;-61
2021/06/14 00:46:59;;;;;;;2.33;1.42;;;23.10;54.60;;;;;;5003361;28;20478;-61
2021/06/14 00:49:24;;;;;;;2.63;1.40;;;23.00;54.60;;;;;;5004253;28;20289;-61
2021/06/14 00:51:50;;;;;;;2.53;1.73;;;23.00;54.60;;;;;;5003096;28;20558;-61
2021/06/14 00:54:15;;;;;;;1.67;1.38;;;23.00;54.70;;;;;;5004078;28;20476;-60
2021/06/14 00:56:41;;;;;;;2.25;1.40;;;22.90;54.80;;;;;;5004911;28;20514;-60
2021/06/14 00:59:06;;;;;;;1.85;1.30;;;22.90;55.10;;;;;;5005362;28;20034;-61
2021/06/14 01:01:32;;;;;;;2.75;1.88;;;22.90;54.80;;;;;;4990450;28;20045;-61
2021/06/14 01:03:57;;;;;;;2.42;1.50;;;22.80;54.90;;;;;;5006950;28;20049;-60
2021/06/14 01:06:23;;;;;;;4.60;1.42;;;22.80;55.00;;;;;;5006180;28;20319;-60
2021/06/14 01:08:50;;;;;;;3.20;1.35;;;22.70;54.90;;;;;;5006472;28;20358;-61
2021/06/14 01:11:20;;;;;;;3.25;1.27;;;22.70;55.10;;;;;;4988387;28;20065;-60
2021/06/14 01:14:04;;;;;;;1.88;1.55;;;22.70;55.00;;;;;;5003518;28;20041;-60
2021/06/14 01:16:43;;;;;;;2.78;1.70;;;22.70;55.10;;;;;;5017242;28;20029;-58
2021/06/14 01:19:32;;;;;;;2.65;1.85;;;22.60;55.00;;;;;;5005500;28;20034;-60
2021/06/14 01:22:17;;;;;;;1.65;1.23;;;22.60;55.30;;;;;;5006623;28;20026;-59
2021/06/14 01:25:07;;;;;;;3.40;1.58;;;22.60;55.20;;;;;;5005382;28;20044;-58
2021/06/14 01:27:42;;;;;;;3.08;1.38;;;22.50;55.20;;;;;;5021142;28;20037;-58
2021/06/14 01:30:12;;;;;;;1.73;1.42;;;22.50;55.30;;;;;;5007674;28;20022;-59
2021/06/14 01:32:39;;;;;;;2.40;1.40;;;22.50;55.40;;;;;;4989194;28;20036;-58
2021/06/14 01:35:05;;;;;;;1.73;1.30;;;22.40;55.40;;;;;;5005171;28;20040;-58
2021/06/14 01:37:31;;;;;;;2.28;1.55;;;22.40;55.50;;;;;;5003877;28;20065;-59
2021/06/14 01:39:56;;;;;;;1.60;1.48;;;22.40;55.60;;;;;;5005985;28;20397;-58
2021/06/14 01:42:22;;;;;;;2.30;1.60;;;22.40;55.60;;;;;;5005218;28;20474;-60
2021/06/14 01:44:48;;;;;;;3.42;1.40;;;22.40;55.60;;;;;;5003781;28;20065;-60
2021/06/14 01:47:13;;;;;;;2.50;1.33;;;22.30;55.60;;;;;;4988003;28;20026;-60
2021/06/14 01:49:39;;;;;;;1.30;1.20;;;22.30;55.70;;;;;;5004551;28;20054;-60
2021/06/14 01:52:05;;;;;;;2.92;1.30;;;22.30;55.70;;;;;;4990159;28;20041;-60
2021/06/14 01:54:30;;;;;;;3.28;1.42;;;22.30;55.70;;;;;;5005447;28;20045;-60
2021/06/14 01:56:56;;;;;;;2.50;1.30;;;22.20;55.90;;;;;;4987793;28;20038;-60
2021/06/14 01:59:28;;;;;;;2.00;1.40;;;22.20;55.80;;;;;;5019755;28;20029;-60
2021/06/14 02:01:54;;;;;;;6.50;1.40;;;22.20;56.00;;;;;;4989027;28;20157;-60
2021/06/14 02:04:20;;;;;;;2.95;1.45;;;22.10;56.00;;;;;;4988103;28;20057;-59
2021/06/14 02:06:47;;;;;;;2.60;1.13;;;22.10;55.90;;;;;;4989045;28;20049;-60
2021/06/14 02:09:14;;;;;;;3.03;1.38;;;22.10;56.10;;;;;;5004348;28;20034;-60
2021/06/14 02:11:41;;;;;;;3.55;1.33;;;22.00;56.00;;;;;;5005971;28;20084;-60
2021/06/14 02:14:07;;;;;;;2.92;1.30;;;22.00;56.10;;;;;;5004850;28;20139;-60
2021/06/14 02:16:32;;;;;;;1.98;1.30;;;22.00;56.20;;;;;;4987666;28;20053;-60
2021/06/14 02:18:58;;;;;;;2.35;1.40;;;22.00;56.20;;;;;;4989069;28;20137;-60
2021/06/14 02:21:23;;;;;;;2.55;1.40;;;21.90;56.50;;;;;;5006671;28;20026;-60
2021/06/14 02:23:49;;;;;;;2.20;1.48;;;21.90;56.40;;;;;;5005451;28;20046;-60
2021/06/14 02:26:15;;;;;;;2.22;1.40;;;21.90;56.50;;;;;;5005306;28;20417;-60
2021/06/14 02:28:40;;;;;;;4.20;1.35;;;21.80;56.40;;;;;;5005678;28;20501;-60
2021/06/14 02:31:06;;;;;;;2.60;1.55;;;21.80;56.50;;;;;;5004874;28;20014;-60
2021/06/14 02:33:32;;;;;;;3.53;1.27;;;21.80;56.60;;;;;;5006705;28;20052;-60
2021/06/14 02:35:57;;;;;;;2.45;1.38;;;21.70;56.60;;;;;;5006076;28;20052;-60
2021/06/14 02:38:23;;;;;;;2.55;1.35;;;21.70;56.70;;;;;;5003361;28;20123;-59
2021/06/14 02:40:49;;;;;;;3.67;1.65;;;21.70;56.80;;;;;;5003799;28;20121;-60
2021/06/14 02:43:15;;;;;;;1.45;1.30;;;21.60;56.80;;;;;;5003485;28;20116;-59
2021/06/14 02:45:40;;;;;;;1.42;1.10;;;21.60;57.50;;;;;;4986130;28;20147;-60
2021/06/14 02:48:06;;;;;;;2.60;1.63;;;21.60;56.90;;;;;;5005273;28;20130;-60
2021/06/14 02:50:34;;;;;;;3.53;1.77;;;21.60;57.00;;;;;;4988773;28;20018;-60
2021/06/14 02:53:01;;;;;;;2.78;1.55;;;21.60;57.10;;;;;;5004419;28;20029;-61
2021/06/14 02:55:30;;;;;;;2.88;1.70;;;21.50;57.10;;;;;;4988771;28;20083;-60
2021/06/14 02:57:57;;;;;;;2.42;1.20;;;21.50;57.20;;;;;;5003500;28;20045;-60
2021/06/14 03:00:23;;;;;;;1.20;1.10;;;21.50;57.30;;;;;;4988313;28;20516;-60
2021/06/14 03:02:49;;;;;;;2.78;1.45;;;21.40;57.40;;;;;;5004152;28;20033;-60
2021/06/14 03:05:15;;;;;;;2.88;1.40;;;21.40;57.40;;;;;;5003949;28;20033;-60
2021/06/14 03:07:40;;;;;;;3.50;1.80;;;21.40;57.50;;;;;;4987611;28;20041;-60
2021/06/14 03:10:07;;;;;;;1.50;1.23;;;21.30;57.60;;;;;;5004610;28;20061;-60
2021/06/14 03:12:32;;;;;;;3.33;1.50;;;21.30;57.70;;;;;;4987862;28;20453;-61
2021/06/14 03:14:58;;;;;;;2.90;1.33;;;21.30;57.80;;;;;;5002211;28;20029;-60
2021/06/14 03:17:23;;;;;;;2.75;1.35;;;21.30;57.90;;;;;;4969879;28;20062;-60
2021/06/14 03:19:49;;;;;;;2.42;1.50;;;21.20;57.90;;;;;;5004028;28;20054;-60
2021/06/14 03:22:15;;;;;;;2.60;1.27;;;21.20;58.00;;;;;;5003555;28;20216;-60
2021/06/14 03:24:41;;;;;;;2.88;1.73;;;21.10;58.00;;;;;;5003441;28;20535;-60
2021/06/14 03:27:07;;;;;;;3.35;1.55;;;21.10;58.10;;;;;;4987820;28;20022;-60
2021/06/14 03:29:33;;;;;;;2.80;1.50;;;21.10;58.00;;;;;;5004357;28;20025;-61
2021/06/14 03:31:58;;;;;;;3.05;1.60;;;21.10;58.30;;;;;;4987188;28;20441;-60
2021/06/14 03:34:24;;;;;;;3.85;1.55;;;21.10;58.30;;;;;;5003003;28;20061;-60
2021/06/14 03:36:49;;;;;;;2.30;1.50;;;21.00;58.40;;;;;;4987699;28;20057;-60
2021/06/14 03:39:16;;;;;;;4.22;1.95;;;21.00;58.50;;;;;;5004541;28;20076;-59
2021/06/14 03:41:48;;;;;;;4.20;1.70;;;21.00;58.70;;;;;;5002446;28;20046;-60
2021/06/14 03:44:15;;;;;;;3.88;1.70;;;20.90;58.70;;;;;;5002903;28;20466;-60
2021/06/14 03:46:41;;;;;;;3.55;1.58;;;20.90;58.80;;;;;;4985346;28;20038;-60
2021/06/14 03:49:06;;;;;;;3.05;1.42;;;20.90;58.80;;;;;;5004019;28;20033;-60
2021/06/14 03:51:32;;;;;;;2.58;1.63;;;20.80;58.80;;;;;;5005304;28;20034;-60
2021/06/14 03:53:58;;;;;;;3.22;1.80;;;20.80;58.90;;;;;;5003047;28;20026;-60
2021/06/14 03:56:25;;;;;;;3.55;1.50;;;20.80;59.10;;;;;;5001630;28;20037;-60
2021/06/14 03:58:51;;;;;;;2.90;1.50;;;20.80;59.10;;;;;;5003647;28;20058;-60
2021/06/14 04:01:16;;;;;;;3.85;1.73;;;20.70;59.20;;;;;;5004303;28;20061;-60
2021/06/14 04:03:44;;;;;;;3.60;1.50;;;20.70;59.20;;;;;;5004489;28;20048;-60
2021/06/14 04:06:09;;;;;;;3.90;1.60;;;20.70;59.40;;;;;;5004593;28;20026;-59
2021/06/14 04:08:36;;;;;;;2.38;1.40;;;20.70;59.40;;;;;;5002955;28;20045;-60
2021/06/14 04:11:03;;;;;;;57.83;8.32;;;20.60;59.40;;;;;;5004052;28;20057;-61
2021/06/14 04:13:28;;;;;;;32.65;4.05;;;20.60;59.40;;;;;;5003741;28;20326;-60
2021/06/14 04:15:54;;;;;;;18.27;3.35;;;20.60;59.50;;;;;;5002812;28;20092;-60
2021/06/14 04:18:19;;;;;;;22.40;3.97;;;20.60;59.50;;;;;;5004104;28;20073;-60
2021/06/14 04:20:45;;;;;;;24.92;4.00;;;20.60;59.50;;;;;;5004272;28;20560;-60
2021/06/14 04:23:10;;;;;;;32.15;4.75;;;20.50;59.60;;;;;;4998986;28;21214;-60
2021/06/14 04:25:36;;;;;;;25.40;3.70;;;20.50;59.50;;;;;;5000006;28;20048;-60
2021/06/14 04:28:03;;;;;;;14.07;3.20;;;20.50;59.50;;;;;;4998985;28;20030;-60
2021/06/14 04:30:28;;;;;;;25.52;4.03;;;20.40;59.50;;;;;;5001985;28;20026;-60
2021/06/14 04:32:54;;;;;;;52.35;4.80;;;20.40;59.50;;;;;;5002172;28;20045;-60
2021/06/14 04:35:19;;;;;;;34.22;4.03;;;20.40;59.70;;;;;;5005036;28;20038;-60
2021/06/14 04:37:45;;;;;;;50.45;4.57;;;20.40;59.80;;;;;;5003654;28;20075;-59
2021/06/14 04:40:11;;;;;;;49.33;5.65;;;20.30;59.80;;;;;;5003442;28;20084;-60
2021/06/14 04:42:36;;;;;;;65.30;4.78;;;20.30;59.90;;;;;;5004818;28;20301;-60
2021/06/14 04:45:03;;;;;;;43.13;4.60;;;20.20;60.00;;;;;;5002427;28;20038;-60
2021/06/14 04:47:29;;;;;;;63.22;6.55;;;20.20;60.00;;;;;;5002633;28;20061;-60
2021/06/14 04:49:57;;;;;;;60.30;6.18;;;20.10;60.10;;;;;;5005947;28;20470;-60
2021/06/14 04:52:23;;;;;;;56.50;4.95;;;20.10;60.20;;;;;;5008094;28;20049;-59
2021/06/14 04:54:48;;;;;;;65.07;5.70;;;20.10;60.40;;;;;;5006468;28;20743;-60
2021/06/14 04:57:14;;;;;;;50.53;5.00;;;20.00;60.40;;;;;;5006382;28;20029;-60
2021/06/14 04:59:39;;;;;;;82.85;6.97;;;20.00;60.50;;;;;;5005042;28;20034;-61
2021/06/14 05:02:05;;;;;;;83.35;6.00;;;20.00;60.70;;;;;;5007191;28;20038;-61
2021/06/14 05:04:31;;;;;;;84.03;5.90;;;20.00;60.80;;;;;;5007574;28;20022;-61
2021/06/14 05:06:56;;;;;;;47.08;5.07;;;19.90;60.80;;;;;;5007258;28;20404;-60
2021/06/14 05:09:22;;;;;;;35.97;4.85;;;19.90;60.90;;;;;;5007147;28;20338;-60
2021/06/14 05:11:48;;;;;;;42.85;5.22;;;19.90;60.90;;;;;;5007689;28;20067;-60
2021/06/14 05:14:15;;;;;;;46.47;5.30;;;19.80;61.00;;;;;;5007712;28;20266;-60
2021/06/14 05:16:41;;;;;;;29.05;3.35;;;19.80;61.10;;;;;;5004220;28;20033;-60
2021/06/14 05:19:06;;;;;;;35.05;3.70;;;19.90;61.30;;;;;;5006262;28;20334;-60
2021/06/14 05:21:32;;;;;;;46.80;4.55;;;19.80;61.40;;;;;;5007893;28;20034;-60
2021/06/14 05:23:57;;;;;;;30.30;3.42;;;19.80;61.30;;;;;;5005889;28;20057;-60
2021/06/14 05:26:23;;;;;;;38.88;4.63;;;19.70;61.30;;;;;;5005738;28;20038;-60
2021/06/14 05:28:48;;;;;;;20.88;3.05;;;19.70;61.50;;;;;;5006334;28;20030;-60
2021/06/14 05:31:14;;;;;;;24.23;3.10;;;19.70;61.40;;;;;;5007998;28;20036;-60
2021/06/14 05:33:39;;;;;;;16.45;2.72;;;19.70;61.50;;;;;;5006453;28;20030;-61
2021/06/14 05:36:05;;;;;;;27.52;3.08;;;19.70;61.60;;;;;;5006438;28;20026;-60
2021/06/14 05:38:31;;;;;;;18.83;2.90;;;19.70;61.70;;;;;;5007137;28;20493;-60
2021/06/14 05:40:56;;;;;;;10.57;2.70;;;19.70;62.50;;;;;;5007251;28;20069;-60
2021/06/14 05:43:22;;;;;;;14.55;2.80;;;19.70;61.90;;;;;;5005572;28;20148;-60
2021/06/14 05:45:47;;;;;;;18.25;2.80;;;19.70;61.90;;;;;;5004315;28;20570;-60
2021/06/14 05:48:13;;;;;;;14.43;3.00;;;19.70;62.00;;;;;;5006370;28;20340;-60
2021/06/14 05:50:38;;;;;;;10.05;2.33;;;19.70;61.90;;;;;;5004836;28;20025;-60
2021/06/14 05:53:04;;;;;;;10.85;2.08;;;19.70;62.00;;;;;;5007020;28;20022;-61
2021/06/14 05:55:29;;;;;;;11.80;2.35;;;19.70;62.20;;;;;;5004032;28;20382;-60
2021/06/14 05:57:56;;;;;;;10.13;2.42;;;19.70;62.80;;;;;;5006189;28;20494;-60
2021/06/14 06:00:22;;;;;;;17.02;3.15;;;19.70;62.20;;;;;;5005211;28;20760;-60
2021/06/14 06:02:47;;;;;;;13.82;2.30;;;19.70;62.40;;;;;;5006804;28;20034;-60
2021/06/14 06:05:13;;;;;;;8.80;2.22;;;19.60;62.20;;;;;;5005297;28;20053;-60
2021/06/14 06:07:38;;;;;;;7.88;2.00;;;19.70;62.40;;;;;;5005576;28;20489;-60
2021/06/14 06:10:05;;;;;;;8.63;2.20;;;19.70;62.40;;;;;;5006818;28;20030;-60
2021/06/14 06:12:30;;;;;;;14.60;2.45;;;19.70;62.40;;;;;;5003667;28;20030;-60
2021/06/14 06:14:56;;;;;;;9.40;2.33;;;19.60;62.90;;;;;;5003248;28;20061;-60
2021/06/14 06:17:21;;;;;;;9.75;2.28;;;19.60;62.70;;;;;;4987219;28;20049;-60
2021/06/14 06:19:47;;;;;;;7.57;2.20;;;19.60;63.00;;;;;;5004864;28;20046;-60
2021/06/14 06:22:13;;;;;;;9.80;2.63;;;19.60;63.10;;;;;;5006541;28;20112;-60
2021/06/14 06:24:39;;;;;;;7.45;2.13;;;19.60;63.40;;;;;;5005611;28;20168;-61
2021/06/14 06:27:04;;;;;;;5.53;2.30;;;19.60;63.30;;;;;;5003891;28;20045;-61
2021/06/14 06:29:30;;;;;;;98.53;10.43;;;19.60;63.40;;;;;;4997857;28;20038;-60
2021/06/14 06:31:55;;;;;;;11.73;2.30;;;19.60;63.50;;;;;;5004760;28;20054;-60
2021/06/14 06:34:21;;;;;;;10.13;2.60;;;19.60;63.30;;;;;;5003775;28;20018;-60
2021/06/14 06:36:47;;;;;;;424.45;37.95;;;19.60;63.30;;;;;;5005890;28;20037;-60
2021/06/14 06:39:12;;;;;;;26.52;4.90;;;19.60;63.50;;;;;;5005502;28;20034;-60
2021/06/14 06:41:38;;;;;;;17.00;2.72;;;19.60;63.70;;;;;;5003468;28;20058;-60
2021/06/14 06:44:03;;;;;;;7.03;2.40;;;19.60;64.50;;;;;;5003515;28;20123;-60
2021/06/14 06:46:29;;;;;;;15.43;2.75;;;19.60;63.90;;;;;;5004922;28;20056;-60
2021/06/14 06:48:54;;;;;;;14.93;2.97;;;19.70;64.00;;;;;;5004570;28;20413;-60
2021/06/14 06:51:20;;;;;;;15.02;2.85;;;19.70;64.30;;;;;;5005533;28;20038;-60
2021/06/14 06:53:45;;;;;;;28.67;3.17;;;19.70;64.10;;;;;;5004652;28;20053;-60
2021/06/14 06:56:11;;;;;;;14.07;2.65;;;19.70;64.20;;;;;;5004618;28;20454;-60
2021/06/14 06:58:36;;;;;;;11.93;3.00;;;19.70;64.70;;;;;;5003030;28;21484;-60
2021/06/14 07:01:02;;;;;;;13.52;2.92;;;19.70;64.20;;;;;;4984568;28;20072;-60
2021/06/14 07:03:28;;;;;;;16.80;3.00;;;19.70;64.30;;;;;;5004943;28;20069;-60
2021/06/14 07:05:54;;;;;;;22.13;3.97;;;19.80;64.80;;;;;;5004430;28;20049;-60
2021/06/14 07:08:19;;;;;;;43.22;6.35;;;19.70;64.90;;;;;;5001168;28;20048;-60
2021/06/14 07:10:45;;;;;;;24.63;3.42;;;19.70;64.90;;;;;;5003589;28;20026;-60
2021/06/14 07:13:12;;;;;;;30.45;3.83;;;19.70;65.00;;;;;;5004419;28;20070;-60
2021/06/14 07:15:37;;;;;;;20.92;3.30;;;19.70;65.00;;;;;;5002379;28;20654;-60
2021/06/14 07:18:03;;;;;;;20.50;3.50;;;19.70;65.00;;;;;;5003757;28;20026;-60
2021/06/14 07:20:29;;;;;;;23.90;3.70;;;19.70;65.00;;;;;;4999056;28;20084;-60
2021/06/14 07:22:54;;;;;;;17.15;3.60;;;19.80;65.10;;;;;;5002895;28;20180;-60
2021/06/14 07:25:20;;;;;;;26.30;3.20;;;19.70;65.30;;;;;;5002835;28;20064;-60
2021/06/14 07:27:45;;;;;;;15.32;3.28;;;19.80;65.10;;;;;;4985651;28;20057;-60
2021/06/14 07:30:11;;;;;;;25.02;3.35;;;19.80;65.40;;;;;;5012220;28;20132;-60
2021/06/14 07:32:38;;;;;;;23.02;3.47;;;19.80;65.40;;;;;;5001139;28;20033;-60
2021/06/14 07:35:04;;;;;;;18.95;3.25;;;19.80;65.30;;;;;;5002746;28;20056;-60
2021/06/14 07:37:29;;;;;;;30.23;3.75;;;19.80;65.20;;;;;;5002329;28;20025;-60
2021/06/14 07:39:55;;;;;;;21.55;3.17;;;19.80;65.50;;;;;;4998626;28;20042;-60
2021/06/14 07:42:21;;;;;;;26.05;3.85;;;19.80;65.70;;;;;;5003476;28;20132;-60
2021/06/14 07:44:46;;;;;;;21.90;4.63;;;19.80;65.70;;;;;;4970161;28;20064;-60
2021/06/14 07:47:12;;;;;;;25.15;4.10;;;19.80;65.50;;;;;;5002983;28;20050;-60
2021/06/14 07:49:39;;;;;;;27.83;4.07;;;19.90;65.50;;;;;;5004816;28;20029;-60
2021/06/14 07:52:04;;;;;;;28.00;4.22;;;19.90;65.70;;;;;;5001196;28;20029;-60
2021/06/14 07:54:30;;;;;;;33.88;4.35;;;19.90;65.70;;;;;;5001314;28;20425;-60
2021/06/14 07:56:56;;;;;;;47.10;5.43;;;19.90;65.60;;;;;;4998716;28;20034;-60
2021/06/14 07:59:21;;;;;;;34.00;4.50;;;19.90;65.70;;;;;;5000954;28;20886;-60
2021/06/14 08:01:47;;;;;;;42.70;6.03;;;20.00;65.70;;;;;;5000558;28;20478;-60
2021/06/14 08:04:12;;;;;;;33.55;5.72;;;20.00;66.00;;;;;;5000987;28;20041;-60
2021/06/14 08:06:38;;;;;;;39.65;4.97;;;20.00;65.90;;;;;;4997066;28;20034;-60
2021/06/14 08:09:07;;;;;;;27.00;4.90;;;20.00;66.10;;;;;;4999765;28;20045;-59
2021/06/14 08:11:33;;;;;;;42.40;4.78;;;20.10;65.70;;;;;;5013710;28;20493;-60
2021/06/14 08:14:00;;;;;;;15.00;3.78;;;20.00;66.00;;;;;;4998312;28;20026;-60
2021/06/14 08:16:26;;;;;;;54.92;8.45;;;20.00;66.20;;;;;;5000106;28;20108;-61
2021/06/14 08:19:06;;;;;;;28.88;4.55;;;20.10;66.20;;;;;;5000171;28;20081;-60
2021/06/14 08:26:42;;;;;;;44.55;5.15;;;20.10;66.00;;;;;;5000646;28;20064;-60
2021/06/14 08:29:08;;;;;;;31.00;4.60;;;20.10;65.90;;;;;;5000845;28;20053;-59
2021/06/14 08:31:33;;;;;;;39.40;5.88;;;20.10;66.70;;;;;;4999250;28;20472;-59
2021/06/14 08:33:59;;;;;;;44.65;6.00;;;20.20;66.00;;;;;;4995836;28;20044;-60
2021/06/14 08:36:24;;;;;;;31.85;5.28;;;20.20;66.10;;;;;;5002040;28;20389;-60
2021/06/14 08:38:50;;;;;;;28.83;5.60;;;20.20;65.90;;;;;;4999739;28;20042;-60
2021/06/14 08:41:19;;;;;;;33.90;5.57;;;20.20;66.50;;;;;;4996829;28;20040;-60
2021/06/14 08:43:47;;;;;;;34.58;5.15;;;20.20;66.10;;;;;;4999362;28;20834;-60
2021/06/14 08:46:12;;;;;;;41.63;4.63;;;20.20;66.20;;;;;;4999221;28;20385;-60
2021/06/14 08:48:40;;;;;;;30.40;4.90;;;20.30;66.60;;;;;;5002835;28;20504;-60
2021/06/14 08:51:06;;;;;;;23.38;4.25;;;20.30;66.60;;;;;;4997730;28;20060;-60
2021/06/14 08:53:31;;;;;;;31.77;4.75;;;20.30;66.20;;;;;;4983550;28;21762;-60
2021/06/14 08:55:58;;;;;;;38.38;5.38;;;20.30;66.30;;;;;;4984483;28;20037;-60
2021/06/14 08:58:23;;;;;;;19.23;4.32;;;20.30;66.10;;;;;;5001247;28;20549;-60
2021/06/14 09:00:49;;;;;;;37.58;5.07;;;20.40;66.40;;;;;;5001226;28;20040;-60
2021/06/14 09:03:18;;;;;;;58.55;6.50;;;20.40;66.60;;;;;;4999241;28;20414;-60
2021/06/14 09:05:44;;;;;;;41.40;5.50;;;20.40;66.70;;;;;;4999285;28;20053;-60
2021/06/14 09:08:09;;;;;;;30.30;4.80;;;20.40;66.60;;;;;;4995882;28;20034;-60
2021/06/14 09:10:39;;;;;;;36.47;5.72;;;20.50;66.50;;;;;;5003060;28;20036;-60
2021/06/14 09:13:21;;;;;;;47.83;6.45;;;20.50;66.60;;;;;;5000357;28;20045;-60
2021/06/14 09:15:52;;;;;;;57.72;6.43;;;20.50;66.60;;;;;;5001270;28;20045;-60
2021/06/14 09:21:28;;;;;;;30.02;5.05;;;20.60;66.70;;;;;;5004500;28;20056;-60
2021/06/14 09:24:05;;;;;;;30.73;6.22;;;20.70;66.70;;;;;;5005767;28;20044;-60
2021/06/14 09:26:36;;;;;;;22.35;5.00;;;20.70;66.50;;;;;;5002728;28;20048;-60
2021/06/14 09:29:08;;;;;;;22.77;4.40;;;20.70;66.40;;;;;;5015613;28;20044;-60
2021/06/14 09:32:03;;;;;;;30.98;4.50;;;20.80;66.50;;;;;;5019801;28;20038;-60
2021/06/14 09:34:33;;;;;;;23.13;4.68;;;20.90;66.50;;;;;;5001193;28;20038;-60
2021/06/14 09:37:01;;;;;;;42.08;5.07;;;20.90;66.30;;;;;;5003740;28;20029;-60
2021/06/14 09:39:26;;;;;;;30.27;4.45;;;21.00;66.30;;;;;;5002975;28;20025;-60
2021/06/14 09:41:52;;;;;;;32.97;5.88;;;21.00;66.30;;;;;;5003629;28;20046;-61
2021/06/14 09:44:32;;;;;;;41.55;5.82;;;21.00;66.30;;;;;;4999829;28;20073;-60
2021/06/14 09:47:08;;;;;;;29.77;5.43;;;21.00;66.40;;;;;;5005097;28;20033;-60
2021/06/14 09:49:34;;;;;;;55.28;5.78;;;21.10;67.10;;;;;;5004789;28;20021;-60
2021/06/14 09:52:00;;;;;;;43.13;5.72;;;21.20;66.30;;;;;;5002037;28;20018;-60
2021/06/14 09:54:27;;;;;;;29.50;5.55;;;21.20;66.20;;;;;;4997558;28;20545;-61
2021/06/14 09:56:53;;;;;;;43.90;5.40;;;21.20;65.90;;;;;;5000083;28;20041;-60
2021/06/14 09:59:26;;;;;;;49.90;6.53;;;21.20;66.10;;;;;;5000175;28;20029;-60
2021/06/14 10:02:03;;;;;;;39.45;5.40;;;21.30;65.90;;;;;;5002025;28;20092;-60
2021/06/14 10:04:29;;;;;;;46.75;5.72;;;21.40;66.10;;;;;;5000628;28;20022;-60
2021/06/14 10:06:57;;;;;;;42.22;5.80;;;21.40;66.00;;;;;;5003895;28;20056;-60
2021/06/14 10:09:23;;;;;;;55.15;6.22;;;21.50;66.00;;;;;;5003277;28;20045;-60
2021/06/14 10:11:48;;;;;;;46.67;6.13;;;21.50;65.90;;;;;;5003306;28;21039;-60
2021/06/14 10:14:18;;;;;;;47.92;6.38;;;21.50;66.10;;;;;;5003453;28;20109;-60
2021/06/14 10:16:46;;;;;;;68.15;7.47;;;21.60;66.20;;;;;;5005333;28;20092;-60
2021/06/14 10:19:13;;;;;;;66.60;7.53;;;21.60;66.20;;;;;;4985560;28;20159;-61
2021/06/14 10:21:46;;;;;;;57.47;6.93;;;21.70;66.10;;;;;;4987451;28;20102;-60
2021/06/14 10:24:16;;;;;;;87.60;8.50;;;21.70;65.90;;;;;;5003810;28;20046;-60
2021/06/14 10:26:47;;;;;;;59.63;7.88;;;21.80;66.10;;;;;;5002565;28;20022;-60
2021/06/14 10:29:14;;;;;;;50.55;6.43;;;21.80;65.90;;;;;;5004133;28;20117;-60
2021/06/14 10:31:45;;;;;;;51.45;7.00;;;21.90;65.90;;;;;;5004171;28;20014;-61
2021/06/14 10:34:11;;;;;;;57.45;7.10;;;22.00;65.50;;;;;;5001950;28;20037;-60
2021/06/14 10:36:37;;;;;;;46.35;5.63;;;22.10;65.30;;;;;;5002094;28;20077;-61
2021/06/14 10:39:03;;;;;;;81.93;8.23;;;22.10;65.10;;;;;;5003124;28;20076;-61
2021/06/14 10:41:29;;;;;;;87.28;9.32;;;22.20;65.10;;;;;;5004197;28;20021;-60
2021/06/14 10:43:54;;;;;;;59.92;7.72;;;22.30;65.50;;;;;;5004679;28;20036;-61
2021/06/14 10:46:22;;;;;;;61.67;8.70;;;22.40;65.10;;;;;;5002748;28;20054;-60
2021/06/14 10:48:48;;;;;;;92.70;10.88;;;22.50;65.00;;;;;;4985567;28;20422;-60
2021/06/14 10:51:15;;;;;;;94.43;9.68;;;22.50;64.50;;;;;;5000931;28;20157;-60
2021/06/14 10:53:41;;;;;;;69.22;8.32;;;22.60;64.60;;;;;;5002449;28;20436;-60
2021/06/14 10:56:07;;;;;;;61.90;8.10;;;22.70;64.50;;;;;;5002372;28;20030;-60
2021/06/14 10:58:33;;;;;;;243.93;20.50;;;22.70;64.30;;;;;;5001471;28;20034;-60
2021/06/14 11:01:16;;;;;;;90.20;10.60;;;22.80;64.10;;;;;;5016717;28;20027;-60
2021/06/14 11:03:45;;;;;;;72.22;10.60;;;22.90;63.90;;;;;;5003006;28;20018;-60
2021/06/14 11:06:31;;;;;;;103.40;10.20;;;23.00;63.80;;;;;;5003146;28;20028;-61
2021/06/14 11:08:59;;;;;;;59.83;8.43;;;23.10;63.60;;;;;;5002632;28;20782;-61
2021/06/14 11:11:24;;;;;;;88.50;10.20;;;23.20;63.30;;;;;;5004810;28;20026;-60
2021/06/14 11:13:50;;;;;;;55.63;6.80;;;23.30;63.20;;;;;;5002775;28;20394;-61
2021/06/14 11:16:17;;;;;;;85.60;8.75;;;23.40;62.70;;;;;;5001376;28;20417;-60
2021/06/14 11:18:42;;;;;;;69.55;8.30;;;23.50;62.60;;;;;;5003163;28;20556;-60
2021/06/14 11:21:08;;;;;;;58.88;8.18;;;23.60;62.20;;;;;;5005034;28;20116;-60
2021/06/14 11:23:33;;;;;;;23.90;4.03;;;23.80;62.30;;;;;;5001918;28;20042;-61
2021/06/14 11:25:59;;;;;;;60.13;7.85;;;23.90;61.70;;;;;;4970927;28;20040;-60
2021/06/14 11:28:54;;;;;;;45.67;7.05;;;24.00;61.30;;;;;;5000084;28;20325;-60
2021/06/14 11:31:23;;;;;;;40.80;6.47;;;24.20;61.10;;;;;;4996887;28;20054;-58
2021/06/14 11:33:50;;;;;;;66.18;7.45;;;24.30;60.90;;;;;;5001094;28;20032;-59
2021/06/14 11:36:27;;;;;;;48.25;5.60;;;24.40;60.50;;;;;;5001447;28;20041;-59
2021/06/14 11:38:54;;;;;;;55.55;7.80;;;24.50;60.20;;;;;;5002574;28;20155;-60
2021/06/14 11:41:29;;;;;;;55.92;6.63;;;24.60;60.10;;;;;;4999743;28;20402;-60
2021/06/14 11:44:17;;;;;;;41.55;5.50;;;24.60;59.70;;;;;;5001780;28;20102;-59
2021/06/14 11:46:43;;;;;;;46.42;5.80;;;24.80;59.60;;;;;;5002119;28;20129;-59
2021/06/14 11:49:09;;;;;;;53.10;5.55;;;24.80;59.30;;;;;;5001230;28;20438;-59
2021/06/14 11:51:34;;;;;;;40.15;5.75;;;24.90;59.20;;;;;;5002495;28;20021;-61
2021/06/14 11:54:00;;;;;;;36.67;4.72;;;25.00;59.10;;;;;;5001762;28;20533;-61
2021/06/14 11:56:27;;;;;;;31.92;5.10;;;25.10;58.50;;;;;;5002522;28;20026;-59
2021/06/14 11:58:53;;;;;;;28.40;4.38;;;25.20;58.40;;;;;;5002157;28;20061;-58
2021/06/14 12:01:26;;;;;;;33.05;5.20;;;25.30;58.00;;;;;;5002428;28;20041;-61
2021/06/14 12:03:55;;;;;;;26.77;5.07;;;25.40;57.60;;;;;;5000999;28;20025;-59
2021/06/14 12:06:22;;;;;;;17.35;4.05;;;25.50;57.50;;;;;;5002122;28;20087;-59
2021/06/14 12:08:48;;;;;;;20.88;4.00;;;25.60;57.40;;;;;;4984333;28;20026;-58
2021/06/14 12:11:14;;;;;;;31.13;4.43;;;25.60;57.10;;;;;;5001067;28;20112;-58
2021/06/14 12:13:39;;;;;;;22.38;4.22;;;25.70;56.50;;;;;;5000244;28;20056;-59
2021/06/14 12:16:05;;;;;;;15.13;3.72;;;25.80;56.50;;;;;;5001310;28;20022;-58
2021/06/14 12:18:31;;;;;;;20.92;4.15;;;25.90;55.90;;;;;;5001240;28;20057;-59
2021/06/14 12:20:58;;;;;;;23.27;4.28;;;25.90;56.10;;;;;;5002023;28;20038;-58
2021/06/14 12:23:24;;;;;;;17.88;3.85;;;26.00;55.40;;;;;;5001914;28;20030;-59
2021/06/14 12:25:51;;;;;;;17.98;3.08;;;26.00;54.80;;;;;;4984954;28;20038;-59
2021/06/14 12:28:18;;;;;;;17.10;3.42;;;26.10;54.40;;;;;;5001793;28;20381;-58
2021/06/14 12:30:45;;;;;;;24.20;4.38;;;26.10;53.80;;;;;;5001337;28;20030;-58
2021/06/14 12:33:10;;;;;;;31.15;4.20;;;26.20;53.60;;;;;;5001088;28;20474;-59
2021/06/14 12:35:37;;;;;;;24.80;3.13;;;26.30;53.50;;;;;;4999328;28;20041;-60
2021/06/14 12:38:10;;;;;;;19.50;3.28;;;26.30;52.70;;;;;;4981529;28;20026;-59
2021/06/14 12:40:38;;;;;;;33.20;4.38;;;26.40;52.20;;;;;;5000861;28;20048;-59
2021/06/14 12:43:06;;;;;;;16.73;3.42;;;26.50;52.60;;;;;;5000686;28;20042;-59
2021/06/14 12:45:32;;;;;;;14.25;3.65;;;26.50;52.10;;;;;;4997562;28;20041;-59
2021/06/14 12:47:58;;;;;;;18.15;3.30;;;26.60;51.60;;;;;;4999916;28;20398;-60